Shibin el-Kom, Egypt
Current Conditions -  °F | °C
As of 6:00 PM on Thursday 29 Jan 2015 (Local Time) from HECA Reporting Station
Scattered Clouds Scattered Clouds  
Wind Chill: 63°   Ceiling: Unl
Heat Index: 63°   Visibility: 6mi
Dew Point: 30°   Wind: 8mph
Humidity: 30%   Direction: 200°SSW
Pressure: 29.91"   Gusts: NA
Location:  30.59°N, 30.9°E
Report Text: HECA 291600Z 20007KT 9999 SCT025 17/M01 Q1013 NOSIG
Loading
Personal Weather Stations






























Interactive Weather Map New forecast layout! Learn more

10-Day Weather Forecast

Advertisements
Track Severe Weather on mobile